METAR Data
IDs: Format: Raw Decoded Include TAF

Data at: 1700 UTC 03 Jul 2020

METAR for:KIND (Indianapolis Intl, IN, US)
Text:KIND 031654Z 02004KT 10SM BKN070 BKN250 31/16 A3004 RMK AO2 SLP166 T03060156
Temperature: 30.6°C ( 87°F)
Dewpoint: 15.6°C ( 60°F) [RH = 40%]
Pressure (altimeter):30.04 inches Hg (1017.4 mb) [Sea level pressure: 1016.6 mb]
Winds:from the NNE (20 degrees) at 5 MPH (4 knots; 2.1 m/s)
Visibility:10 or more sm (16+ km)
Ceiling:7000 feet AGL
Clouds: broken clouds at 7000 feet AGL, broken clouds at 25000 feet AGL